Time;durP1;ratioP1;P1;durP2;ratioP2;P2;SDS_P1;SDS_P2;PMS_P1;PMS_P2;Temp;Humidity;BMP_temperature;BMP_pressure;BME280_temperature;BME280_humidity;BME280_pressure;Samples;Min_cycle;Max_cycle;Signal;HPM_P1;HPM_P2
2021/05/03 00:00:04;;;;;;;10.90;9.80;;;;;;;6.57;100.00;99146.28;5074028;28;20865;-77
2021/05/03 00:02:35;;;;;;;11.32;9.95;;;;;;;6.47;100.00;99133.16;5074051;28;20406;-77
2021/05/03 00:05:08;;;;;;;13.00;10.13;;;;;;;6.53;100.00;99139.91;5056267;28;20738;-77
2021/05/03 00:07:34;;;;;;;11.48;10.10;;;;;;;6.51;100.00;99142.31;5074077;28;20386;-77
2021/05/03 00:10:02;;;;;;;11.45;10.20;;;;;;;6.46;100.00;99137.13;5073936;28;20382;-77
2021/05/03 00:12:30;;;;;;;11.23;10.13;;;;;;;6.41;100.00;99131.97;5073579;28;20391;-77
2021/05/03 00:14:56;;;;;;;11.55;10.15;;;;;;;6.38;100.00;99135.53;5073905;28;20434;-77
2021/05/03 00:17:23;;;;;;;11.00;9.60;;;;;;;6.34;100.00;99131.97;5055836;28;20769;-77
2021/05/03 00:19:50;;;;;;;11.05;9.70;;;;;;;6.51;100.00;99142.31;5073545;28;20396;-77
2021/05/03 00:22:17;;;;;;;11.20;9.33;;;;;;;6.44;100.00;99120.06;5073538;28;20722;-77
2021/05/03 00:24:44;;;;;;;11.00;9.18;;;;;;;6.28;100.00;99111.34;5073728;28;20448;-77
2021/05/03 00:27:11;;;;;;;10.70;9.57;;;;;;;6.21;100.00;99109.34;5073581;28;20699;-77
2021/05/03 00:29:37;;;;;;;11.73;9.98;;;;;;;6.24;100.00;99107.78;5035885;28;20393;-77
2021/05/03 00:32:09;;;;;;;11.77;10.45;;;;;;;6.28;100.00;99100.25;5066537;28;20923;-77
2021/05/03 00:34:36;;;;;;;13.13;10.02;;;;;;;6.41;100.00;99109.75;5073292;28;20899;-77
2021/05/03 00:37:03;;;;;;;11.23;10.07;;;;;;;6.49;100.00;99105.81;5073393;28;20392;-77
2021/05/03 00:39:29;;;;;;;10.93;9.43;;;;;;;6.60;100.00;99095.53;5073119;28;20741;-77
2021/05/03 00:41:56;;;;;;;12.27;10.13;;;;;;;6.63;100.00;99103.06;5073367;28;20404;-77
2021/05/03 00:44:25;;;;;;;12.25;9.90;;;;;;;6.62;100.00;99099.47;5073295;28;20424;-77
2021/05/03 00:46:55;;;;;;;11.03;9.73;;;;;;;6.60;100.00;99095.53;5073412;28;20394;-77
2021/05/03 00:49:21;;;;;;;12.15;10.85;;;;;;;6.25;100.00;99079.63;5072758;28;20397;-77
2021/05/03 00:51:48;;;;;;;11.77;10.43;;;;;;;6.17;100.00;99089.13;5073220;28;20448;-77
2021/05/03 00:54:15;;;;;;;11.80;10.60;;;;;;;6.13;100.00;99087.53;5073023;28;20727;-77
2021/05/03 00:56:42;;;;;;;12.85;10.55;;;;;;;6.25;100.00;99087.16;5073000;28;20394;-77
2021/05/03 00:59:09;;;;;;;13.63;10.85;;;;;;;6.19;100.00;99085.97;5073028;28;20386;-77
2021/05/03 01:01:36;;;;;;;12.00;10.77;;;;;;;6.14;100.00;99083.56;5073055;28;20488;-77
2021/05/03 01:04:03;;;;;;;12.13;10.47;;;;;;;6.08;100.00;99079.59;5072629;28;20405;-77
2021/05/03 01:06:30;;;;;;;13.23;11.05;;;;;;;6.12;100.00;99077.63;5072913;28;20745;-77
2021/05/03 01:08:56;;;;;;;14.68;11.32;;;;;;;6.06;100.00;99066.13;5054863;28;21128;-77
2021/05/03 01:11:23;;;;;;;13.35;11.27;;;;;;;6.10;100.00;99083.56;5072826;28;20390;-77
2021/05/03 01:13:51;;;;;;;14.15;11.80;;;;;;;6.00;100.00;99067.69;5072726;28;20378;-77
2021/05/03 01:16:18;;;;;;;12.48;11.18;;;;;;;6.03;100.00;99078.00;5072783;28;20386;-77
2021/05/03 01:18:45;;;;;;;12.45;11.20;;;;;;;5.95;100.00;99061.75;5037802;28;20398;-77
2021/05/03 01:21:22;;;;;;;11.55;10.35;;;;;;;5.91;100.00;99061.72;5054727;28;20480;-77
2021/05/03 01:23:49;;;;;;;12.50;11.20;;;;;;;5.95;100.00;99078.38;5072208;28;20402;-77
2021/05/03 01:26:16;;;;;;;11.70;10.50;;;;;;;6.05;100.00;99069.28;5072597;28;20389;-77
2021/05/03 01:28:43;;;;;;;11.73;10.52;;;;;;;6.06;100.00;99059.78;5072577;28;20753;-77
2021/05/03 01:31:10;;;;;;;12.23;10.93;;;;;;;5.99;100.00;99065.31;5072106;28;20390;-77
2021/05/03 01:33:36;;;;;;;11.60;10.30;;;;;;;5.83;100.00;99067.66;5072295;28;20382;-77
2021/05/03 01:36:03;;;;;;;10.98;9.85;;;;;;;5.81;100.00;99064.44;5054402;28;20845;-76
2021/05/03 01:38:30;;;;;;;12.02;9.73;;;;;;;6.06;100.00;99065.34;5072156;28;20865;-77
2021/05/03 01:40:57;;;;;;;11.18;9.75;;;;;;;5.71;100.00;99054.13;5072133;28;20868;-77
2021/05/03 01:43:26;;;;;;;11.80;9.55;;;;;;;5.76;100.00;99054.53;5072200;28;20398;-77
2021/05/03 01:45:56;;;;;;;13.23;10.15;;;;;;;5.67;100.00;99053.28;5072160;28;20436;-77
2021/05/03 01:48:26;;;;;;;12.63;9.63;;;;;;;5.97;100.00;99056.59;5072142;28;20398;-76
2021/05/03 01:50:54;;;;;;;12.43;9.68;;;;;;;5.73;100.00;99040.63;5054291;28;20389;-77
2021/05/03 01:53:22;;;;;;;10.90;9.20;;;;;;;5.76;100.00;99043.44;5071779;28;20417;-77
2021/05/03 01:55:53;;;;;;;11.52;9.25;;;;;;;5.76;100.00;99043.44;5072002;28;20386;-77
2021/05/03 01:58:21;;;;;;;11.35;9.32;;;;;;;5.73;100.00;99047.00;5054137;28;20393;-76
2021/05/03 02:00:49;;;;;;;10.43;9.38;;;;;;;5.66;100.00;99035.88;5071287;28;20398;-76
2021/05/03 02:03:24;;;;;;;10.57;9.13;;;;;;;5.73;100.00;99040.63;5054674;28;20398;-77
2021/05/03 02:06:01;;;;;;;10.75;9.68;;;;;;;5.81;100.00;99031.16;5054190;28;20393;-77
2021/05/03 02:08:31;;;;;;;10.18;8.70;;;;;;;5.83;100.00;99034.38;5071411;28;20397;-77
2021/05/03 02:10:58;;;;;;;10.02;8.73;;;;;;;5.91;100.00;99024.91;5071627;28;20853;-76
2021/05/03 02:13:26;;;;;;;10.27;9.03;;;;;;;6.21;100.00;99033.66;5071766;28;20385;-77
2021/05/03 02:15:53;;;;;;;10.15;8.93;;;;;;;6.04;100.00;99028.88;5071452;28;20393;-77
2021/05/03 02:18:20;;;;;;;10.55;9.15;;;;;;;6.03;100.00;99022.53;5071470;28;20402;-76
2021/05/03 02:20:48;;;;;;;11.43;9.63;;;;;;;5.87;100.00;99037.94;5053479;28;21494;-77
2021/05/03 02:23:15;;;;;;;13.38;9.75;;;;;;;5.80;100.00;99035.13;5071587;28;20401;-77
2021/05/03 02:25:42;;;;;;;11.07;9.30;;;;;;;5.88;100.00;99037.56;5053858;28;20741;-76
2021/05/03 02:28:10;;;;;;;10.40;9.30;;;;;;;5.60;100.00;99029.16;5071652;28;20853;-77
2021/05/03 02:30:39;;;;;;;12.50;9.40;;;;;;;5.66;100.00;99029.53;5069816;28;20398;-76
2021/05/03 02:33:08;;;;;;;8.73;7.13;;;;;;;5.94;100.00;99024.13;5071306;28;20414;-76
2021/05/03 02:35:35;;;;;;;9.40;8.07;;;;;;;5.93;100.00;99022.50;5053599;28;20391;-76
2021/05/03 02:38:03;;;;;;;10.35;8.60;;;;;;;5.87;100.00;99018.53;5071485;28;20481;-76
2021/05/03 02:40:31;;;;;;;7.85;6.45;;;;;;;6.15;100.00;99008.25;5071396;28;20402;-77
2021/05/03 02:42:59;;;;;;;8.07;7.13;;;;;;;6.09;100.00;99003.53;5053893;28;20749;-77
2021/05/03 02:45:28;;;;;;;10.02;7.32;;;;;;;6.08;100.00;99013.00;5071069;28;20397;-77
2021/05/03 02:47:54;;;;;;;8.18;6.82;;;;;;;6.05;100.00;99002.72;5053781;28;20770;-77
2021/05/03 02:50:22;;;;;;;8.38;6.50;;;;;;;6.09;100.00;99011.84;5071313;28;20401;-77
2021/05/03 02:52:50;;;;;;;10.67;6.60;;;;;;;6.04;100.00;98995.59;5053648;28;20718;-76
2021/05/03 02:55:18;;;;;;;7.38;6.30;;;;;;;6.23;100.00;98987.66;5071494;28;20386;-77
2021/05/03 02:57:47;;;;;;;8.30;6.80;;;;;;;6.24;100.00;99005.13;5071279;28;20398;-76
2021/05/03 03:00:21;;;;;;;8.70;6.43;;;;;;;6.11;100.00;99001.13;5071148;28;20390;-77
2021/05/03 03:02:48;;;;;;;8.10;6.70;;;;;;;6.04;100.00;99001.13;5071051;28;20456;-76
2021/05/03 03:05:15;;;;;;;8.23;6.13;;;;;;;5.95;100.00;98993.22;5071256;28;20382;-76
2021/05/03 03:07:42;;;;;;;8.48;6.57;;;;;;;5.94;100.00;98990.84;5071308;28;20393;-77
2021/05/03 03:10:09;;;;;;;8.65;7.20;;;;;;;6.01;100.00;98980.53;5071385;28;20734;-76
2021/05/03 03:12:36;;;;;;;9.32;5.95;;;;;;;6.11;100.00;98984.47;5072796;28;20385;-77
2021/05/03 03:15:04;;;;;;;9.30;6.18;;;;;;;6.25;100.00;98968.66;5057083;28;20385;-77
2021/05/03 03:17:31;;;;;;;9.02;5.50;;;;;;;6.47;100.00;98972.19;5075069;28;20892;-77
2021/05/03 03:19:58;;;;;;;8.02;5.68;;;;;;;6.71;100.00;98976.91;5040406;28;20515;-76
2021/05/03 03:22:25;;;;;;;8.52;5.30;;;;;;;6.73;100.00;98958.66;5074974;28;20873;-76
2021/05/03 03:24:51;;;;;;;7.20;5.30;;;;;;;6.59;100.00;98966.22;5057206;28;20420;-77
2021/05/03 03:27:18;;;;;;;6.78;5.50;;;;;;;6.54;100.00;98963.84;5074813;28;20405;-77
2021/05/03 03:29:45;;;;;;;7.13;6.32;;;;;;;6.20;100.00;98971.00;5074654;28;20396;-77
2021/05/03 03:32:12;;;;;;;7.55;5.82;;;;;;;6.02;100.00;98959.13;5074722;28;20382;-77
2021/05/03 03:34:38;;;;;;;7.78;5.72;;;;;;;6.30;100.00;98964.69;5074682;28;20858;-77
2021/05/03 03:37:11;;;;;;;8.25;6.30;;;;;;;6.14;100.00;98953.19;5074577;28;20699;-77
2021/05/03 03:39:38;;;;;;;8.35;5.95;;;;;;;6.58;100.00;98959.09;5074815;28;20386;-77
2021/05/03 03:42:05;;;;;;;6.40;5.72;;;;;;;6.80;100.00;98972.50;5056647;28;20405;-77
2021/05/03 03:44:32;;;;;;;8.45;5.78;;;;;;;6.43;100.00;98946.41;5056704;28;20487;-77
2021/05/03 03:46:59;;;;;;;8.63;6.30;;;;;;;6.24;100.00;98949.63;5056723;28;20386;-77
2021/05/03 03:49:25;;;;;;;9.20;6.30;;;;;;;6.22;100.00;98946.44;5074424;28;20397;-77
2021/05/03 03:51:52;;;;;;;7.30;6.03;;;;;;;6.31;100.00;98935.72;5056511;28;20400;-77
2021/05/03 03:54:19;;;;;;;9.32;5.60;;;;;;;6.39;100.00;98934.53;5074444;28;20388;-76
2021/05/03 03:56:46;;;;;;;9.13;6.13;;;;;;;6.30;100.00;98931.38;5056548;28;20431;-77
2021/05/03 03:59:14;;;;;;;8.18;6.07;;;;;;;6.29;100.00;98947.22;5074128;28;20389;-77
2021/05/03 04:01:42;;;;;;;6.88;5.63;;;;;;;6.21;100.00;98929.00;5074298;28;20881;-77
2021/05/03 04:04:22;;;;;;;11.17;5.80;;;;;;;6.51;100.00;98920.25;5073805;28;20397;-77
2021/05/03 04:07:14;;;;;;;7.67;5.47;;;;;;;6.59;100.00;98921.78;5074244;28;21252;-77
2021/05/03 04:12:36;;;;;;;7.73;5.70;;;;;;;6.37;100.00;98920.25;5074076;28;20398;-77
2021/05/03 04:26:14;;;;;;;7.45;5.70;;;;;;;6.23;100.00;98898.06;5073547;28;20528;-77
2021/05/03 04:28:45;;;;;;;9.02;5.68;;;;;;;6.62;100.00;98909.91;5074006;28;20431;-77
2021/05/03 04:31:13;;;;;;;8.90;5.40;;;;;;;6.57;100.00;98897.22;5073606;28;20475;-77
2021/05/03 04:33:40;;;;;;;8.20;4.93;;;;;;;6.59;100.00;98900.38;5073415;28;20520;-77
2021/05/03 04:36:08;;;;;;;8.65;5.55;;;;;;;6.53;100.00;98912.28;5073504;28;20382;-77
2021/05/03 04:38:35;;;;;;;8.40;5.70;;;;;;;6.34;100.00;98898.88;5055582;28;20439;-77
2021/05/03 04:41:01;;;;;;;8.85;5.43;;;;;;;6.30;100.00;98892.53;5072634;28;20393;-77
2021/05/03 04:43:28;;;;;;;6.78;5.20;;;;;;;6.56;100.00;98892.06;5072643;28;20406;-77
2021/05/03 04:45:56;;;;;;;6.93;5.22;;;;;;;6.48;100.00;98885.72;5073001;28;20405;-76
2021/05/03 04:48:23;;;;;;;8.18;5.25;;;;;;;6.57;100.00;98885.34;5072896;28;20409;-76
2021/05/03 04:50:50;;;;;;;9.32;5.60;;;;;;;6.54;100.00;98892.47;5072544;28;20382;-76
2021/05/03 04:53:17;;;;;;;8.23;5.30;;;;;;;6.52;100.00;98896.84;5072710;28;20467;-76
2021/05/03 04:55:44;;;;;;;9.13;5.15;;;;;;;6.44;100.00;98889.72;5072990;28;20386;-76
2021/05/03 04:58:10;;;;;;;7.85;5.03;;;;;;;6.44;100.00;98892.50;5073182;28;20382;-76
2021/05/03 05:00:37;;;;;;;9.50;5.33;;;;;;;6.33;100.00;98883.41;5072682;28;20386;-76
2021/05/03 05:03:04;;;;;;;8.98;5.15;;;;;;;6.39;100.00;98884.59;5073069;28;20484;-76
2021/05/03 05:05:31;;;;;;;8.27;5.25;;;;;;;6.26;100.00;98875.09;5055096;28;20769;-77
2021/05/03 05:07:58;;;;;;;8.88;5.40;;;;;;;6.22;100.00;98875.13;5054963;28;20885;-76
2021/05/03 05:10:25;;;;;;;10.50;5.38;;;;;;;5.97;100.00;98871.56;5072801;28;20382;-76
2021/05/03 05:12:52;;;;;;;7.40;5.43;;;;;;;6.16;100.00;98881.44;5072664;28;20463;-76
2021/05/03 05:15:19;;;;;;;8.87;5.23;;;;;;;6.20;100.00;98879.47;5054817;28;20408;-77
2021/05/03 05:17:48;;;;;;;6.63;5.00;;;;;;;6.25;100.00;98873.50;5054554;28;20382;-77
2021/05/03 05:20:16;;;;;;;6.60;4.75;;;;;;;6.58;100.00;98882.16;5072724;28;20490;-77
2021/05/03 05:22:43;;;;;;;9.77;4.80;;;;;;;6.83;100.00;98868.19;5054624;28;20389;-76
2021/05/03 05:25:11;;;;;;;7.93;5.13;;;;;;;6.67;100.00;98859.50;5054648;28;20382;-76
2021/05/03 05:27:38;;;;;;;8.80;5.18;;;;;;;6.42;100.00;98856.03;5072563;28;20397;-76
2021/05/03 05:30:06;;;;;;;7.25;5.22;;;;;;;6.51;100.00;98864.72;5072186;28;20416;-76
2021/05/03 05:32:33;;;;;;;8.03;5.37;;;;;;;6.50;100.00;98852.03;5072367;28;20901;-76
2021/05/03 05:35:01;;;;;;;7.47;4.63;;;;;;;6.86;100.00;98862.59;5053993;28;20394;-77
2021/05/03 05:37:28;;;;;;;10.00;5.38;;;;;;;6.54;100.00;98852.81;5057412;28;20388;-76
2021/05/03 05:39:55;;;;;;;10.45;5.13;;;;;;;6.85;100.00;98852.69;5086730;28;20395;-76
2021/05/03 05:42:21;;;;;;;10.20;4.73;;;;;;;6.92;100.00;98843.56;5077004;28;20873;-76
2021/05/03 05:44:48;;;;;;;8.47;4.90;;;;;;;7.06;100.00;98857.34;5069498;28;20484;-76
2021/05/03 05:47:15;;;;;;;8.37;5.07;;;;;;;6.99;100.00;98846.28;5073728;28;20430;-73
2021/05/03 05:49:42;;;;;;;6.68;4.70;;;;;;;7.00;100.00;98848.66;5076265;28;20388;-73
2021/05/03 05:52:09;;;;;;;8.02;5.10;;;;;;;7.08;100.00;98850.19;5075600;28;20436;-74
2021/05/03 05:54:36;;;;;;;6.88;4.75;;;;;;;7.02;100.00;98862.13;5069165;28;20382;-73
2021/05/03 05:57:03;;;;;;;7.38;5.03;;;;;;;6.95;100.00;98846.28;5067474;28;20413;-74
2021/05/03 05:59:30;;;;;;;8.45;4.75;;;;;;;6.94;100.00;98843.91;5050532;28;20393;-73
2021/05/03 06:01:57;;;;;;;6.65;4.80;;;;;;;7.15;100.00;98843.78;5071031;28;21097;-73
2021/05/03 06:04:26;;;;;;;7.25;5.13;;;;;;;7.13;100.00;98835.88;5067572;28;20394;-76
2021/05/03 06:06:54;;;;;;;7.65;5.00;;;;;;;7.24;100.00;98838.56;5074079;28;20398;-75
2021/05/03 06:09:20;;;;;;;8.02;4.88;;;;;;;7.35;100.00;98828.19;5067613;28;20386;-76
2021/05/03 06:11:47;;;;;;;5.85;4.60;;;;;;;7.46;100.00;98826.13;5054036;28;20380;-75
2021/05/03 06:14:14;;;;;;;6.20;4.63;;;;;;;7.53;100.00;98831.63;5080031;28;20389;-76
2021/05/03 06:16:42;;;;;;;8.25;4.70;;;;;;;7.52;100.00;98818.13;5080226;28;20465;-75
2021/05/03 06:19:08;;;;;;;7.70;4.20;;;;;;;7.47;100.00;98811.03;5072566;28;20477;-75
2021/05/03 06:21:35;;;;;;;5.28;4.05;;;;;;;7.35;100.00;98800.41;5068047;28;20900;-77
2021/05/03 06:24:02;;;;;;;9.23;4.07;;;;;;;7.27;100.00;98802.44;5066975;28;20405;-75
2021/05/03 06:26:29;;;;;;;5.63;4.00;;;;;;;7.31;100.00;98802.41;5067411;28;20889;-77
2021/05/03 06:28:58;;;;;;;5.80;3.50;;;;;;;7.34;100.00;98799.63;5051240;28;20397;-76
2021/05/03 06:31:25;;;;;;;8.93;3.70;;;;;;;7.44;100.00;98800.72;5035537;28;20954;-76
2021/05/03 06:33:52;;;;;;;6.05;3.47;;;;;;;7.54;100.00;98804.63;5070968;28;20390;-76
2021/05/03 06:36:19;;;;;;;5.85;3.38;;;;;;;7.59;100.00;98802.19;5071177;28;20527;-77
2021/05/03 06:39:10;;;;;;;6.07;3.40;;;;;;;7.84;100.00;98807.53;5071047;28;20426;-76
2021/05/03 06:41:37;;;;;;;4.90;3.22;;;;;;;7.86;100.00;98794.03;5071314;28;20420;-77
2021/05/03 06:44:04;;;;;;;4.00;3.00;;;;;;;7.88;100.00;98775.72;5023876;28;20753;-76
2021/05/03 06:46:31;;;;;;;4.72;2.80;;;;;;;7.95;100.00;98775.63;5070717;28;20397;-76
2021/05/03 06:48:58;;;;;;;5.10;2.70;;;;;;;7.90;100.00;98764.16;5053859;28;20399;-76
2021/05/03 06:51:24;;;;;;;3.67;2.47;;;;;;;8.15;100.00;98748.00;5071410;28;20409;-76
2021/05/03 06:53:51;;;;;;;4.38;2.53;;;;;;;8.12;100.00;98751.63;5075359;28;20386;-77
2021/05/03 06:56:24;;;;;;;4.15;2.28;;;;;;;8.23;100.00;98736.41;5075403;28;20412;-76
2021/05/03 06:58:53;;;;;;;3.60;2.53;;;;;;;8.22;100.00;98739.56;5073771;28;20401;-76
2021/05/03 07:01:21;;;;;;;3.55;2.38;;;;;;;8.09;100.00;98728.19;5075293;28;20887;-76
2021/05/03 07:03:49;;;;;;;4.32;2.47;;;;;;;7.94;100.00;98718.41;5075126;28;20416;-76
2021/05/03 07:06:16;;;;;;;3.78;2.33;;;;;;;7.96;100.00;98726.34;5075150;28;20394;-76
2021/05/03 07:08:43;;;;;;;3.90;2.47;;;;;;;8.14;100.00;98722.16;5075243;28;20389;-77
2021/05/03 07:11:15;;;;;;;3.20;2.33;;;;;;;8.41;100.00;98713.91;5074839;28;20938;-76
2021/05/03 07:13:42;;;;;;;6.45;1.95;;;;;;;8.64;100.00;98714.78;5075129;28;20469;-77
2021/05/03 07:16:09;;;;;;;6.47;2.30;;;;;;;8.91;100.00;98720.38;5074937;28;21011;-77
2021/05/03 07:18:36;;;;;;;3.85;1.90;;;;;;;9.19;100.00;98715.13;5057084;28;20398;-76
2021/05/03 07:21:03;;;;;;;3.70;2.13;;;;;;;9.32;100.00;98711.75;5074685;28;20394;-76
2021/05/03 07:23:30;;;;;;;3.90;2.03;;;;;;;9.34;100.00;98710.13;5057036;28;20820;-76
2021/05/03 07:25:59;;;;;;;4.53;1.87;;;;;;;9.23;100.00;98720.66;5056897;28;20382;-76
2021/05/03 07:28:27;;;;;;;4.07;2.00;;;;;;;9.16;100.00;98704.84;5074561;28;20397;-77
2021/05/03 07:30:58;;;;;;;5.55;2.00;;;;;;;9.26;100.00;98714.25;5074806;28;20725;-79
2021/05/03 07:33:26;;;;;;;4.10;2.10;;;;;;;9.14;100.00;98700.91;5073231;28;20390;-78
2021/05/03 07:35:54;;;;;;;5.10;1.88;;;;;;;9.01;100.00;98703.47;5074268;28;20489;-78
2021/05/03 07:38:21;;;;;;;4.55;1.90;;;;;;;8.89;100.00;98698.50;5074423;28;20421;-79
2021/05/03 07:40:47;;;;;;;5.37;2.30;;;;;;;8.99;100.00;98693.97;5076845;28;20472;-78
2021/05/03 07:43:14;;;;;;;7.32;2.47;;;;;;;9.10;100.00;98695.38;5069808;28;20396;-78
2021/05/03 07:45:42;;;;;;;5.13;2.23;;;;;;;8.82;100.00;98692.25;5087598;28;21104;-79
2021/05/03 07:48:09;;;;;;;4.15;1.98;;;;;;;9.25;100.00;98684.00;5082883;28;20447;-79
2021/05/03 07:50:37;;;;;;;5.60;2.10;;;;;;;9.12;100.00;98684.59;5056266;28;20481;-78
2021/05/03 07:53:05;;;;;;;5.38;2.00;;;;;;;9.12;100.00;98681.81;5059622;28;20741;-79
2021/05/03 07:55:32;;;;;;;3.78;1.85;;;;;;;9.04;100.00;98680.34;5044186;28;20392;-79
2021/05/03 07:58:00;;;;;;;5.82;2.10;;;;;;;9.12;100.00;98670.66;5080199;28;20388;-79
2021/05/03 08:00:28;;;;;;;4.90;2.22;;;;;;;9.34;100.00;98675.88;5080198;28;20401;-78
2021/05/03 08:02:56;;;;;;;4.47;2.15;;;;;;;9.24;100.00;98665.72;5073966;28;20915;-78
2021/05/03 08:05:25;;;;;;;5.17;2.33;;;;;;;9.28;100.00;98672.00;5087560;28;20408;-78
2021/05/03 08:07:52;;;;;;;4.00;2.20;;;;;;;9.33;100.00;98669.50;5063878;28;20389;-78
2021/05/03 08:10:19;;;;;;;3.92;2.10;;;;;;;9.40;100.00;98666.63;5090448;28;20873;-77
2021/05/03 08:12:46;;;;;;;4.60;2.35;;;;;;;9.16;100.00;98653.91;5083966;28;20481;-77
2021/05/03 08:15:14;;;;;;;4.45;2.10;;;;;;;9.25;100.00;98647.75;5074117;28;20739;-76
2021/05/03 08:17:46;;;;;;;5.00;2.13;;;;;;;9.16;100.00;98649.09;5055023;28;20889;-77
2021/05/03 08:20:15;;;;;;;5.97;2.20;;;;;;;8.94;100.00;98656.25;5073476;28;20396;-76
2021/05/03 08:22:42;;;;;;;5.40;2.33;;;;;;;8.98;100.00;98637.44;5073570;28;20910;-76
2021/05/03 08:25:09;;;;;;;4.93;2.13;;;;;;;9.13;100.00;98649.94;5073204;28;20884;-77
2021/05/03 08:27:37;;;;;;;5.22;2.20;;;;;;;8.76;100.00;98639.00;5073697;28;20382;-77
2021/05/03 08:30:06;;;;;;;5.68;2.30;;;;;;;8.83;100.00;98641.69;5073027;28;20885;-78
2021/05/03 08:32:33;;;;;;;3.30;2.10;;;;;;;8.81;100.00;98632.97;5073250;28;20940;-78
2021/05/03 08:34:59;;;;;;;3.90;2.78;;;;;;;8.79;100.00;98646.53;5073048;28;20734;-78
2021/05/03 08:37:26;;;;;;;3.67;2.25;;;;;;;8.86;100.00;98632.47;5073018;28;20394;-78
2021/05/03 08:39:53;;;;;;;4.53;1.92;;;;;;;8.62;100.00;98619.72;5055341;28;20907;-77
2021/05/03 08:42:20;;;;;;;3.78;2.05;;;;;;;8.25;100.00;98622.66;5026534;28;20885;-75
2021/05/03 08:44:52;;;;;;;3.40;1.90;;;;;;;8.29;100.00;98615.06;5079578;28;20859;-77
2021/05/03 08:47:20;;;;;;;4.40;1.88;;;;;;;8.25;100.00;98622.66;5078401;28;20382;-76
2021/05/03 08:49:57;;;;;;;2.65;1.70;;;;;;;8.05;100.00;98604.22;5069444;28;20416;-76
2021/05/03 08:54:54;;;;;;;2.92;1.60;;;;;;;8.07;100.00;98610.16;5070231;28;20853;-79
2021/05/03 08:57:21;;;;;;;3.35;1.80;;;;;;;7.82;100.00;98604.91;5073172;28;20389;-79
2021/05/03 08:59:48;;;;;;;2.17;1.42;;;;;;;7.82;100.00;98596.56;5072728;28;20792;-79
2021/05/03 09:02:17;;;;;;;1.98;1.52;;;;;;;7.85;100.00;98598.50;5054991;28;20865;-79
2021/05/03 09:04:44;;;;;;;2.20;1.60;;;;;;;7.82;100.00;98599.34;5072485;28;20440;-79
2021/05/03 09:07:14;;;;;;;3.65;1.80;;;;;;;7.63;100.00;98582.50;5054932;28;20467;-79
2021/05/03 09:09:47;;;;;;;4.10;1.90;;;;;;;7.59;100.00;98574.19;5068522;28;20397;-79
2021/05/03 09:12:19;;;;;;;4.57;2.08;;;;;;;7.91;100.00;98585.72;5073091;28;20390;-80
2021/05/03 09:14:45;;;;;;;4.40;1.70;;;;;;;7.76;100.00;98584.31;5050360;28;20397;-79
2021/05/03 09:17:43;;;;;;;3.30;1.90;;;;;;;7.62;100.00;98567.81;5072844;28;20397;-79
2021/05/03 09:20:19;;;;;;;3.28;1.80;;;;;;;7.56;100.00;98560.34;5056324;28;20402;-79
2021/05/03 09:23:08;;;;;;;4.18;1.88;;;;;;;7.59;100.00;98546.41;5072543;28;20386;-79
2021/05/03 09:28:12;;;;;;;4.68;1.90;;;;;;;8.04;100.00;98563.69;5074298;28;20397;-79
2021/05/03 09:30:57;;;;;;;3.97;2.20;;;;;;;8.28;100.00;98549.47;5054418;28;20446;-80
2021/05/03 09:33:28;;;;;;;2.90;2.17;;;;;;;7.88;100.00;98533.69;5072349;28;20865;-79
2021/05/03 09:35:57;;;;;;;4.18;1.90;;;;;;;8.24;100.00;98518.09;5076704;28;20453;-79
2021/05/03 09:38:36;;;;;;;4.63;1.70;;;;;;;7.88;100.00;98533.69;5061459;28;20393;-79
2021/05/03 09:41:07;;;;;;;4.40;2.03;;;;;;;8.00;100.00;98516.44;5082582;28;20394;-79
2021/05/03 09:43:34;;;;;;;2.60;1.67;;;;;;;8.06;100.00;98492.50;5072192;28;20402;-79
2021/05/03 09:46:30;;;;;;;2.63;1.70;;;;;;;8.24;100.00;98487.47;5072247;28;20389;-79
2021/05/03 09:48:59;;;;;;;2.50;1.80;;;;;;;8.31;100.00;98470.69;5072090;28;20408;-78
2021/05/03 09:51:56;;;;;;;2.97;1.73;;;;;;;8.06;100.00;98480.59;5072086;28;20390;-77
2021/05/03 09:54:30;;;;;;;4.55;2.17;;;;;;;8.07;100.00;98473.81;5063964;28;20869;-79
2021/05/03 09:57:02;;;;;;;4.45;2.30;;;;;;;8.12;100.00;98485.25;5083692;28;20380;-80
2021/05/03 10:00:00;;;;;;;4.85;2.70;;;;;;;8.29;100.00;98473.09;5078259;28;20392;-80
2021/05/03 10:02:39;;;;;;;3.38;2.85;;;;;;;8.47;100.00;98459.66;5077952;28;20532;-79
2021/05/03 10:05:18;;;;;;;8.50;3.63;;;;;;;7.98;100.00;98452.09;5071627;28;20405;-78
2021/05/03 10:07:52;;;;;;;4.90;3.30;;;;;;;7.46;100.00;98448.09;5073441;28;20482;-80
2021/05/03 10:10:25;;;;;;;4.53;3.43;;;;;;;7.52;100.00;98449.19;5053654;28;20773;-79
2021/05/03 10:12:53;;;;;;;5.80;3.33;;;;;;;7.77;100.00;98429.38;5053439;28;20891;-79
2021/05/03 10:15:20;;;;;;;6.20;3.53;;;;;;;7.60;100.00;98425.66;5071213;28;20402;-78
2021/05/03 10:17:47;;;;;;;5.53;3.60;;;;;;;7.31;100.00;98416.13;5070578;28;20393;-79
2021/05/03 10:20:21;;;;;;;5.93;3.33;;;;;;;7.70;100.00;98413.59;5039328;28;20389;-79
2021/05/03 10:22:55;;;;;;;4.82;3.60;;;;;;;7.94;100.00;98395.72;5070857;28;20433;-79
2021/05/03 10:25:23;;;;;;;5.80;3.42;;;;;;;8.21;100.00;98399.25;5073899;28;20853;-79
2021/05/03 10:27:59;;;;;;;4.80;3.15;;;;;;;8.06;100.00;98392.34;5076201;28;20403;-80
2021/05/03 10:30:28;;;;;;;4.78;3.90;;;;;;;7.70;100.00;98377.44;5053833;28;20389;-80
2021/05/03 10:33:01;;;;;;;5.45;4.40;;;;;;;7.27;100.00;98365.34;5084127;28;20449;-79
2021/05/03 10:35:46;;;;;;;5.93;4.72;;;;;;;7.30;100.00;98375.63;5054599;28;20404;-75
2021/05/03 10:38:37;;;;;;;6.10;4.57;;;;;;;7.59;100.00;98365.69;5070157;28;20401;-75
2021/05/03 10:41:22;;;;;;;4.88;4.38;;;;;;;7.75;100.00;98362.28;5065102;28;20910;-75
2021/05/03 10:43:51;;;;;;;5.35;4.50;;;;;;;7.49;100.00;98336.06;5070262;28;20398;-76
2021/05/03 10:49:04;;;;;;;4.50;3.97;;;;;;;7.31;100.00;98330.00;5070426;28;21131;-76
2021/05/03 10:51:42;;;;;;;4.60;3.88;;;;;;;7.67;100.00;98325.44;5069385;28;20394;-76
2021/05/03 10:54:27;;;;;;;4.35;3.38;;;;;;;7.32;100.00;98314.88;5069527;28;20991;-76
2021/05/03 10:56:57;;;;;;;5.03;2.67;;;;;;;7.13;100.00;98296.13;5070903;28;20393;-75
2021/05/03 10:59:24;;;;;;;4.20;2.72;;;;;;;7.39;100.00;98284.22;5070812;28;20399;-76
2021/05/03 11:01:54;;;;;;;3.55;2.67;;;;;;;7.49;100.00;98291.59;5070572;28;20405;-76
2021/05/03 11:04:30;;;;;;;3.73;2.40;;;;;;;7.77;100.00;98268.09;5054119;28;20402;-76
2021/05/03 11:06:57;;;;;;;3.70;2.50;;;;;;;7.58;100.00;98266.03;5080188;28;20401;-76
2021/05/03 11:09:32;;;;;;;4.05;2.45;;;;;;;7.70;100.00;98260.66;5070748;28;20404;-77
2021/05/03 11:12:09;;;;;;;3.45;2.42;;;;;;;7.46;100.00;98247.97;5070127;28;20865;-76
2021/05/03 11:15:11;;;;;;;3.15;2.53;;;;;;;7.44;100.00;98250.38;5057429;28;20393;-75
2021/05/03 11:18:21;;;;;;;5.40;3.00;;;;;;;7.34;100.00;98229.13;5054427;28;20414;-77
2021/05/03 11:21:01;;;;;;;4.25;3.10;;;;;;;7.10;100.00;98219.19;5045398;28;20932;-76
2021/05/03 11:23:30;;;;;;;5.22;3.55;;;;;;;7.31;100.00;98213.28;5060344;28;20384;-79
2021/05/03 11:25:57;;;;;;;3.90;3.03;;;;;;;7.48;100.00;98214.19;5081447;28;20407;-79
2021/05/03 11:28:35;;;;;;;5.38;3.42;;;;;;;7.34;100.00;98190.22;5073243;28;20394;-79
2021/05/03 11:31:17;;;;;;;6.07;3.50;;;;;;;7.34;100.00;98190.22;5055871;28;20401;-79
2021/05/03 11:34:01;;;;;;;5.47;3.63;;;;;;;7.32;100.00;98173.97;5076716;28;20384;-78
2021/05/03 11:36:34;;;;;;;4.85;3.42;;;;;;;7.33;100.00;98171.94;5081540;28;20434;-77
2021/05/03 11:39:15;;;;;;;4.80;3.72;;;;;;;7.44;100.00;98180.88;5075314;28;20414;-80
2021/05/03 11:42:11;;;;;;;8.40;7.13;;;;;;;7.38;100.00;98174.25;5072948;28;20904;-80
2021/05/03 11:44:51;;;;;;;17.35;14.60;;;;;;;7.39;100.00;98153.59;5067125;28;20433;-79
2021/05/03 11:47:41;;;;;;;9.50;8.48;;;;;;;7.43;100.00;98136.84;5046832;28;20402;-79
2021/05/03 11:50:09;;;;;;;12.52;10.85;;;;;;;7.31;100.00;98146.59;5073682;28;20733;-80
2021/05/03 11:52:38;;;;;;;8.23;6.60;;;;;;;7.43;100.00;98126.53;5077112;28;20650;-80
2021/05/03 11:55:10;;;;;;;5.70;4.55;;;;;;;7.42;100.00;98136.09;5070451;28;20402;-82
2021/05/03 11:57:43;;;;;;;7.13;5.45;;;;;;;7.15;100.00;98108.38;5038259;28;20404;-82
2021/05/03 12:00:13;;;;;;;5.60;4.50;;;;;;;7.07;100.00;98108.91;5057761;28;20398;-81
2021/05/03 12:02:41;;;;;;;3.70;3.38;;;;;;;7.10;100.00;98105.28;5077235;28;20389;-81